Airfield :
LOGIN :

Register | Disclaimer

   EN    FR    IT 

 










Legend :    VFR   Marginal VFR   IFR   Intensive IFR   Very Intensive IFR
Visi :
Ceiling :
>= 8 km
>= 3000ft
5 to 8 km
1000 to 3000 ft
1500m to 5 km
500 to 1000 ft
800 to 1500m
200 to 500 ft
< 800m
< 200 ft
Symbols :   Thunderstorms  Fog  Heavy snow  Heavy precipitations  Wind > 20 kt
SIGMETs :     Misc.  Thunderstorms  Icing  Turbulence  Mountain Waves  Volcanic Ashes






- Airport Elevation : 364 ft
- IATA code : FRA


EDDF - Frankfurt Int.

CURRENT METAR :
  • 052320Z AUTO 06004KT 020V120 9999 SCT012 BKN032 BKN041 04/02 Q1039 NOSIG

EXPIRED METARs :
  • 052250Z AUTO 03008KT 9999 FEW013 BKN025 BKN042 04/02 Q1039 NOSIG
  • 052220Z AUTO 07006KT 9999 FEW012 SCT017 OVC026 04/02 Q1039 TEMPO BKN012
  • 052150Z AUTO 07008KT 9999 SCT012 BKN017 BKN024 04/02 Q1038 TEMPO BKN012
  • 052120Z AUTO 05009KT 9999 SCT014 BKN029 05/02 Q1038 NOSIG
  • 052050Z AUTO 04010KT 9999 FEW012 BKN016 BKN022 05/03 Q1038 NOSIG
  • 052020Z AUTO 04011KT 9999 FEW010 BKN017 OVC029 05/03 Q1037 TEMPO BKN012

TAF TAF EDDF
Valid from the 05 at 18:00 until the 07 at 00:00 UTC


051700Z 0518/0624 03006KT 9999 SCT010 BKN020
TEMPO 0518/0603 BKN010
PROB30
TEMPO 0518/0524 4000 -DZRA BKN006



MET'MAP, your aeronautical weather chart ! - Copyright ORBIFLY December 2007 - Disclaimer

ORBIFLY MET'MAP TEAM :

Programming & Development : Alexandra Zaïnal
Original concept : Baudouin d'Aumeries
Technical & hardware support : Manuel Goepfert
Assistance : Marc-Olivier Méhu




SOURCES & CREDITS :

   NOAA